Ksea taf. TAF Home. Plot. Data. Board. Info. For situational aw...

TAF: KSEA 150852Z 1509/1612 03008KT P6SM SKC FM151200 VRB04KT P6SM F

Winds/Temps Data. Click on map to access text data for each region. Page loaded: 07:06 UTC | 12:06 AM Pacific | 01:06 AM Mountain | 02:06 AM Central | 03:06 AM Eastern. Aviation Weather Center Homepage provides comprehensive user-friendly aviation weather Text products and graphics.METAR KSEA 261153Z 16005KT 10SM FEW150 11/09 A2991 RMK AO2 SLP135 70061 T01060089 10156 20106 53007. The wind is from direction 160° with a speed of 5 kt. Visibility is 10 mi. ... KSEA - Seattle-Tacoma International Airport METAR TAF. KRNT - Renton Municipal Airport (4.7 NM) METAR KBFI - Boeing Field/King County International ...METAR KSEA 211353Z 22006KT 10SM OVC010 12/09 A3019 RMK AO2 SLP227 T01170089. The wind is from direction 220° with a speed of 6 kt. Visibility is 10 mi. The ceiling, broken or more, is 1,000 ft. The temperature and wind chill are 12 °C.Updated at 2223 UTC 30 Sep 2023. NOTE: LAMP data beyond the time of the TAF data is denoted as LAMP in Type and colored magenta. For situational awareness. Not to be used for flight planning purposes. Aviation Weather Center Homepage provides comprehensive user-friendly aviation weather Text products and graphics.TAF for: KINT (Winston-Salem/Reynol, NC, US) issued at 0531 UTC 10 Mar 2023: Text: KINT 100531Z 1006/1106 15004KT P6SM BKN070 OVC120 : Forecast period: 0600 to 0900 UTC 10 March 2023: Forecast type: FROM: standard forecast or significant change ...Updated at 1938 UTC 03 Oct 2023. NOTE: LAMP data beyond the time of the TAF data is denoted as LAMP in Type and colored magenta. For situational awareness. Not to be used for flight planning purposes. Aviation Weather Center Homepage provides comprehensive user-friendly aviation weather Text products and graphics.METAR KSEA 180253Z 20007KT 10SM SCT250 24/13 A2974 RMK AO2 SLP072 T02440133 55007. The wind is from direction 200° with a speed of 7 kt. Visibility is 10 mi. No ceiling has been observed. ... KSEA - Seattle-Tacoma International Airport METAR TAF. KRNT - Renton Municipal Airport (4.7 NM) METAR KBFI - Boeing …METAR KSEA 101253Z 17005KT 10SM -RA FEW048 BKN055 OVC070 11/07 A2958 RMK AO2 SLP021 P0004 T01110072. Current weather is light rain.The wind is from direction 170° with a speed of 5 kt. Visibility is 10 mi. The ceiling, broken or more, is 5,500 ft. The temperature and wind chill are 11 °C.ksea: taf ksea 260520z 2606/2712 35005kt p6sm bkn015 fm260900 05003kt 2sm br ovc020 fm261200 vrb03kt 1/2sm fg ovc004 fm261800 18004kt 4sm br ovc007 fm262100 21005kt p6sm ovc010 fm270000 19003kt p6sm ovc015 n 4 nm 21' kbfi: taf kbfi 260520z 2606/2706 00000kt p6sm bkn020 fm260900 00000kt 4sm br ovc015Renton Municipal Airport is a midsized airport in Washington, United States. The airport is located at latitude 47.49314 and longitude -122.21575. The airport has one …NOTE: LAMP data beyond the time of the TAF data is denoted as LAMP in Type and colored magenta. Raw TAF KSEA 201506Z 2015/2118 16006KT 3SM -RA BR SCT010 OVC025 FM201600 19007KT P6SM -SHRA OVC020 FM202100 22009KT P6SM VCSH SCT030 OVC040 FM210000 20007KT P6SM OVC040 FM210800 18004KT P6SM OVC025 Raw METAR KSEA 201715Z 20008KT 10SM SCT008 BKN012 OVC022 09/07 A2970 RMK AO2 RAE12 P0001 T00890072 ...Airport Ownership and Management from official FAA records. Ownership: Publicly-owned. Owner: SPOKANE COUNTY-CITY. ARPT BOARD, 9000 W AIRPORT DRIVE. SPOKANE, WA 99224. Phone 509-455-6455. Manager:TAF: KSEA 150852Z 1509/1612 03008KT P6SM SKC FM151200 VRB04KT P6SM FEW250 FM151700 32008KT P6SM FEW250 FM160400 35005KT P6SM FEW250. Weather observations and forecasts of more than 4000 airports (METAR and TAF reports). The available stations are represented by yellow and red dots on the map.NOTE: LAMP data beyond the time of the TAF data is denoted as LAMP in Type and colored magenta. Raw TAF KBFI 110533Z 1106/1206 16009KT P6SM -SHRA SCT025 BKN050 OVC070 FM111400 15006KT P6SM -SHRA OVC020 FM112000 22005KT P6SM OVC030 FM112200 29004KT P6SM BKN050 Raw METAR KBFI 110653Z 14010KT 10SM CLR 10/09 A2950 RMK AO2 RAE01 SLP989 P0000 T01000094 401560100 KBFI 110553Z 16011KT 8SM -RA FEW033 ...Airport Information for SEATTLE-TACOMA INTERNATIONAL, KSEA. Elevation: 432.3 ft Variation 16E. 47-26-59.6000N 122-18-42.4000W. 10 miles S of SEATTLE, WA.KSEA (SEATTLE/METRO , WA, US) Text: KSEA 111509Z 1115/1218 14010KT P6SM -SHRA SCT025 OVC040 : Forecast period: 1500 to 2100 UTC 11 October 2023 Forecast type: FROM: standard forecast or significant change Winds: from the SE (140 degrees) at 12 MPH (10 knots; 5.1 m/s) Visibility: 6 or more miles (10+ km) Ceiling:METAR KSEA 120553Z 03012KT 10SM BKN250 21/11 A3011 RMK AO2 SLP201 T02060111 10261 20206 53013 $. The wind is from direction 030° with a speed of 12 kt. Visibility is 10 mi. The ceiling, broken or more, is 25,000 ft. The temperature and wind chill are 21 °C.NOTE: LAMP data beyond the time of the TAF data is denoted as LAMP in Type and colored magenta. Raw TAF KSEA 060901Z 0609/0712 01008KT P6SM SKC FM061200 03006KT 6SM BR SCT002 FM061700 35007KT P6SM SKC FM070600 04005KT P6SM SKC Raw METAR KSEA 060853Z 36007KT 10SM CLR 12/10 A3027 RMK AO2 SLP257 T01220100 56006 KSEA 060753Z 01010KT 10SM CLR 13/11 A3028 RMK AO2 SLP258 T01280106 401940128 KSEA ... Terminal Area Forecast. KSEA. RAW. Reported. Mon, 10/9 4:20 PM PDT. Valid. Mon, 10/9 5:00 PM PDT - Tue, 10/10 11:00 PM PDT. VFR. ... KSEA 092320Z 1000/1106 20008KT P6SM -SHRA SCT025 BKN045 OVC070 FM100400 20006KT P6SM SCT045 OVC070 FM101400 16008KT P6SM -RA OVC040 FM101900 14008KT P6SM -SHRA OVC040 …If the weather at the destination, for at least 1 hour before and 1 hour after the estimated time of arrival, is forecast to have at least a 2,000 foot ceiling (above the airport elevation) and visibility of at least 3 statute miles, you are not required to list an alternate airport in the IFR flight plan. If either the ceiling or visibility is ...TAF Text Data. TAF Home. Plot. Data. Board. Info. IDs: Format: Raw Decoded Include METAR Data at: 1701 UTC 06 Apr 2023. KSEA 061653Z 11007KT 10SM -RA FEW015 BKN049 OVC060 09/05 A2987 RMK AO2 SLP122 P0002 T00890050 KSEA 061409Z 0614/0718 12008KT P6SM -RA SCT035 OVC045 FM062000 11012G22KT 6SM -RA BR …data at: 1656 utc 04 oct 2023. ksea 041653z 24004kt 10sm few007 ovc010 13/09 a3036 rmk ao2 slp287 t01330094 ksea 041553z 17004kt 10sm sct007 bkn012 13/11 a3035 rmk ao2 slp282 t01280106 ksea 041507z 17003kt 10sm sct007 ovc010 12/10 a3034 rmk ao2 t01220100 ksea 041453z 19003kt 10sm bkn007 ovc010 12/11 a3034 rmk ao2 slp281 t01220106 53007 ksea 041424z 23003kt 10sm ovc007 12/11 a3034 rmk ao2 cig ...METAR KSEA 092153Z VRB03KT 10SM SCT035 BKN200 16/07 A3010 RMK AO2 SLP198 T01610067. There is little or no wind from a variable direction. Visibility is 10 mi. The ceiling, broken or more, is 20,000 ft. The temperature and wind chill are 16 °C.July 10, 2023 12:41 - October 7, 2023 21:00 LT. Notices to Airmen (NOTAM) for Seattle-Tacoma International Airport and Seattle FIR with maps.Windy: KSEA (SEA) Seattle–Tacoma International Airport, METAR, TAF, NOTAM and weather forecast. Piedras Negras. Texas.taf; kpdx : 101720z 1018/1118 14009kt p6sm vcsh ovc020 fm101900 15010kt p6sm vcsh ovc018 fm102000 19010g22kt p6sm vcsh bkn019 fm102100 20013g24kt p6sm -shra bkn035 fm110200 20011kt p6sm shra ovc026 fm110600 19013g26kt p6sm shra ovc040 kttd 8nm e :NOTE: LAMP data beyond the time of the TAF data is denoted as LAMP in Type and colored magenta. Raw TAF. KATL 100348Z 1004/1106 23006KT P6SM SKC. FM101800 24012KT P6SM SCT250. FM110000 24006KT P6SM SCT250. Raw METAR. KATL 100452Z 22006KT 10SM CLR 16/07 A2991 RMK AO2 SLP122 T01560072 402390083 $.Describe the present weather forecast in the KSEA TAF for 18Z on the 9 th. SEA UA /OV SEA180040/TM 0335/FL220/TP B737/TB MOD/RM DURD 220- 180-OCNL LGT TB BLO180-HAWKZ3 -ZSE 16. In the above PIREP, where was the aircraft located? 17. In the above PIREP, describe any turbulence observed and at what level it was observed.METAR KSEA 011153Z 00000KT 10SM CLR 08/05 A3013 RMK AO2 SLP209 T00780050 10111 20072 53002 $. There is little or no wind from a variable direction. Visibility is 10 mi. ... KSEA - Seattle-Tacoma International Airport METAR TAF. KRNT - Renton Municipal Airport (4.7 NM) METAR KBFI - Boeing Field/King County International ...METAR Home. Plot. Data. Board. Info. IDs: Format: Raw Decoded Include TAF. Data at: 1007 UTC 11 Oct 2023. Region: TOP. KATL 110952Z 00000KT 10SM BKN200 BKN250 18/13 A2991 RMK AO2 SLP121 T01780133 $.taf: ksea 100138z 1002/1106 21009g18kt p6sm -shra bkn025 bkn050 tempo 1002/1006 sct025 bkn035 fm100600 20006kt p6sm bkn050 ovc070 fm101400 16008kt p6sm -ra ovc040 fm101900 14008kt p6sm -shra ovc040 Weather observations and forecasts of more than 4000 airports (METAR and TAF reports).METAR KSEA 252253Z 19010KT 10SM FEW050 SCT080 OVC095 17/12 A2976 RMK AO2 SLP082 T01670117. The wind is from direction 190° with a speed of 10 kt. Visibility is 10 mi. The ceiling, broken or more, is 9,500 ft. The temperature and wind chill are 17 °C.ksea 111453z 12013g21kt 7sm -ra bkn028 ovc041 11/08 a2954 rmk ao2 slp008 p0005 60014 t01110083 53007 ksea 111509z 1115/1218 14010kt p6sm -shra sct025 ovc040 tempo 1115/1117 12013g18kt 6sm -shra bkn025 ovc040 fm112100 23006kt p6sm -shra sct025 bkn045 ovc070 fm112300 35006kt p6sm bkn050 fm120700 vrb03kt p6sm bkn050 fm121300 vrb03kt 4sm br sct002 fm121700 04006kt p6sm skcMetar-Taf.com. METAR KSEA 052253Z 05009KT 10SM FEW020 FEW250 19/12 A3031 RMK AO2 SLP268 T01940122. The wind is from direction 050° with a speed of 9 kt. Visibility is 10 mi. No ceiling has been observed.KSEA - Seattle-Tacoma Intl, WA, US. Issued at 0535 UTC 02 Feb 2023. Updated at 0552 UTC 02 Feb 2023. Potential Impact: None: Slight: Moderate: High: Time 0453Z 02/06Z 02/07Z 02/08Z 02/09Z 02/10Z ... NOTE: LAMP data beyond the time of the TAF data is denoted as LAMP in Type and colored magenta.TAF for: KPDX (Portland Intl Arpt, OR, US) issued at 2049 UTC 10 Oct 2023: Text: KPDX 102049Z 1021/1118 19014G22KT P6SM SCT020 BKN030 BKN070 : Forecast period: 2100 UTC 10 October 2023 to 0200 UTC 11 October 2023: Forecast type: FROM: standard forecast or significant change: Winds:METAR KSEA 241918Z 28004KT 10SM -RA SCT019 BKN040 10/07 A3014 RMK AO2 RAB1857 P0001 T01000072. Current weather is light rain.The wind is from direction 280° with a speed of 4 kt. Visibility is 10 mi. The ceiling, broken or more, is 4,000 ft. The temperature is 10 °C, with a wind chill of 8 °C.NOTE: LAMP data beyond the time of the TAF data is denoted as LAMP in Type and colored magenta. Raw TAF KSEA 141720Z 1418/1524 VRB04KT P6SM SCT014 FM141900 22006KT P6SM FEW014 FEW050 FM150100 18006KT P6SM SCT060 BKN150 KSEA 141720Z 1418/1524 VRB04KT P6SM SCT014 FM141900 22006KT P6SM FEW014 FEW050 FM150100 18006KT P6SM SCT060 BKN150METAR KSEA 090153Z 31005KT 10SM FEW035 FEW100 SCT200 26/13 A2992 RMK AO2 SLP137 T02560128. The wind is from direction 310° with a speed of 5 kt. Visibility is 10 mi. ... KSEA - Seattle-Tacoma International Airport METAR TAF. KRNT - Renton Municipal Airport (4.7 NM) METAR KBFI - Boeing Field/King County International ...ksea 161953z 35011kt 10sm bkn250 11/m02 a3023 rmk ao2 slp244 t01061017 ksea 161720z 1618/1724 02011kt p6sm sct200 fm170400 03006kt p6sm sct200 fm172000 29005kt p6sm bkn200 PAFA 161953Z 06003KT 10SM FEW140 FEW200 M16/M25 A2975 RMK AO2 SLP090 T11611250 PAFA 161720Z 1618/1724 04007KT P6SM FEW090 SCT20025 Des 2018 ... Tuning to 122.00 with ASXP will give you ATIS on any actual airport you are sitting at, be it true METAR or interpolated weather. Read manual or ...METAR KSEA 260953Z 16003KT 10SM FEW045 SCT100 BKN150 12/11 A2989 RMK AO2 SLP126 T01220106. The wind is from direction 160° with a speed of 3 kt. Visibility is 10 mi. The ceiling, broken or more, is 15,000 ft. The temperature and wind chill are 12 °C.OBST TOWER LGT (ASR 1004639) 472924.60N1221840.90W (2.4NM NE SEA) 501.0FT (109.9FT AGL) U/S. July 10, 2023 12:41 - October 7, 2023 21:00 LT. Notices to Airmen (NOTAM) for Seattle-Tacoma International Airport and Seattle FIR with maps.TAF Text Data. TAF Home. Plot. Data. Board. Info. IDs: Format: Raw Decoded Include METAR Data at: 1453 UTC 14 Sep 2023. KSEA 141341Z 1414/1518 02008KT 4SM BR BKN003 TEMPO 1415/1416 6SM BR SCT003 FM141600 35008KT P6SM SKC. Page loaded: 14:53 UTC | 07:53 AM Pacific | 08:53 AM Mountain | 09:53 AM Central | 10:53 AM Eastern ...210 ° at 6 KTS. Visibility. Greater than 6 SM. Clouds. Broken at 5,000 ft AGL. Overcast at 9,000 ft AGL. Ceiling. Broken at 5,000 ft AGL. TAF Seattle-Tacoma International Airport KSEA SeaTac, Washington, United States.METAR KSEA 230653Z 23007KT 10SM FEW040 BKN075 11/04 A3018 RMK AO2 SLP227 T01060044. The wind is from direction 230° with a speed of 7 kt. Visibility is 10 mi. The ceiling, broken or more, is 7,500 ft. The temperature and wind chill are 11 °C.ksea 090953z 22004kt 10sm bkn250 14/10 a2972 rmk ao2 slp068 t01390100 $ ksea 090916z 0909/1012 20006kt p6sm sct120 bkn200 fm091300 16008kt p6sm bkn120 ovc200 fm091600 16008kt p6sm vcsh ovc050 fm092000 19008kt p6sm -ra ovc035 fm100000 22007kt p6sm ovc040. cyvr 091000z 08005kt 20sm bkn180 ovc220 14/13 a2962 rmk …Raw TAF. KSEA 190311Z 1903/2006 21007KT P6SM BKN035. FM191200 18004KT P6SM BKN020 OVC035. FM191800 24006KT P6SM SCT020 BKN040. Raw METAR. KSEA 190402Z 23008KT 10SM SCT026 OVC060 14/09 A3006 RMK AO2 T01390089. KSEA 190353Z 24007KT 10SM BKN026 BKN060 OVC085 14/09 A3006 RMK AO2 RAE00 …IDs: Format: Raw Decoded Include TAF. Data at: 1543 UTC 09 Oct 2023. METAR for: KSEA (Seattle-Tacoma Intl, WA, US) Text: KSEA 091453Z 00000KT 10SM FEW030 SCT120 OVC200 14/11 A2967 RMK AO2 SLP050 T01390106 55007 $. Temperature: 13.9°C ( 57°F) Dewpoint:METAR for: KSEA (Seattle-Tacoma Intl, WA, US) Text: KSEA 231153Z 21007KT 10SM SCT120 OVC240 14/08 A2991 RMK AO2 SLP134 T01390078 10172 20139 55000 METAR KSEA 240436Z 20007KT 6SM -RA BR OVC034 08/06 A2990 RMK AO2 P0003 T00780061. Current weather is light rain, mist.The wind is from direction 200° with a speed of 7 kt. Visibility is 6 mi. The ceiling, broken or more, is 3,400 ft. The temperature is 8 °C, with a wind chill of 4 °C.Updated 11-Oct-2023. write. ASRI 131.75. 206-762-6376. [ web site] [ email] Welcoming guests to the panoramic beauty of the Pacific Northwest, Skyservice Seattle is located at King County-Boeing Field International Airport (KBFI), one of the busiest primary general aviation airports in the United States.Heavy rain, flooding, and gusty winds are expected in parts of New England and the Northeast from the arrival of a cold front and the remnants of Philippe. Widespread red flag warnings are in effect across the South for critical fire weather conditions due to dry conditions and gusty winds. Read More >.ksea 181453z 11005kt 10sm bkn040 bkn048 14/09 a3005 rmk ao2 slp182 60008 t01390094 51014 ksea 181528z 1815/1918 10006kt p6sm vcsh bkn025 ovc040 fm181700 02008kt p6sm sct025 bkn045 fm182100 33006kt p6sm sct050 sct200 fm190500 vrb05kt p6sm bkn120 ovc200 fm191100 17007kt p6sm bkn050 ovc090. cyyc 181500z 30015kt 10sm bkn240 …TAF Seattle-Tacoma International Airport. Seattle-Tacoma International Airport is a large airport in Washington, United States. The airport is located at latitude 47.45019 and longitude -122.31232. The airport has 3 runways: 16L/34R, 16C/34C and 16R/34L. The ICAO airport code of this field is KSEA.Station Type Date Time Source; KSEA: Decoded METAR: 2023/10/06: 05:53 UTC: NOAA: SEATTLE-TACOMA INTERNATIONAL AIRPORT , WA, United States (KSEA) 47-27N 122-19W 136M METAR KSEA 151553Z 21006KT 10SM SCT075 BKN095 08/04 A3010 RMK AO2 SLP201 T00780039. The wind is from direction 210° with a speed of 6 kt. Visibility is 10 mi. The ceiling, broken or more, is 9,500 ft. The temperature is 8 °C, with a wind chill of 4 °C.TAF Home. Plot. Data. Board. Info. For situational awareness. Not to be used for flight planning purposes. IDs: KSEA - Seattle-Tacoma Intl, WA, US. Issued at 0255 UTC ... METAR KSEA 141753Z 03006KT 10SM CLR 19/12 A3014 RMK AO2 SLP212 T01890117 10194 20128 58003. The wind is from direction 030° with a speed of 6 kt. Visibility is 10 mi. ... KSEA - Seattle-Tacoma International Airport METAR TAF. KRNT - Renton Municipal Airport (4.7 NM) METAR KBFI - Boeing Field/King County International ...METAR KSEA 202253Z 15012KT 7SM -RA BKN028 OVC035 07/04 A3019 RMK AO2 SLP231 P0002 T00720044. Current weather is light rain.The wind is from direction 150° with a speed of 12 kt. Visibility is 7 mi. The ceiling, broken or more, is 2,800 ft. The temperature is 7 °C, with a wind chill of 2 °C.Sep 23, 2023 · TAF for: KSEA (Seattle-Tacoma Intl, WA, US) issued at 2322 UTC 23 Sep 2023: Text: KSEA 232322Z 2400/2506 24007KT P6SM FEW025 BKN040 OVC050 : Forecast period: 0000 to 0300 UTC 24 September 2023: Forecast type: FROM: standard forecast or significant change: Winds: from the WSW (240 degrees) at 8 MPH (7 knots; 3.6 m/s) Visibility: 6 or more sm (10 ... ksea 170253z 24004kt 10sm few030 bkn150 19/10 a2995 rmk ao2 slp148 t01890100 53008 ksea 170300z 1703/1806 24004kt p6sm few030 bkn150 fm171000 20006kt p6sm bkn200 fm171400 20006kt 5sm br sct006 ovc200 fm171600 22008kt p6sm ovc200 fm180400 19008kt p6sm bkn100 ovc200. cyvr 170300z 11008kt 20sm few070 bkn120 bkn220 17/11 a2990 rmk ac1ac4ci2 slp127 ...Impacts TAF Board. TAF Home. Plot. Data. Board. Info. For situational awareness. Not to be used for flight planning purposes. IDs: KSEA - Seattle-Tacoma Intl, WA, US. Issued at 1507 UTC 22 Sep 2023. Updated at 1649 UTC 22 Sep 2023. Potential Impact: None: Slight: Moderate: High: Time <<23/05Z 23/06Z 23/07Z 23/08Z 23/09Zrctp 291930z 04010kt 9999 few020 28/24 q1009 nosig rmk a2982 taf rctp 291700z 2918/3024 06012kt 9999 few015 bkn032 tempo 2918/2924 few010 bkn020 bkn040 becmg 3000/3002 04015kt ... ksea 291953z 35010g18kt 10sm sct015 bkn250 14/07 a2994 rmk ao2 slp144 t01390067 ksea 291720z 2918/3024 35010kt p6sm sct050 sct250 fm292100 33009kt p6sm bkn250 ...Flight plan departing from KSEA - Seattle Tacoma Intl, arriving at KDFW - Dallas Fort Worth Intl. Distance 1,451 nm / 2,687 km. Download for FSX, X-Plane, PMDG, Infinite Flight, PDF or other products. ... TAF. TAF AMD KSEA 211502Z 2115/2218 VRB05KT 6SM BR FEW006 FM211700 35008KT P6SM SKC FM212300 34010KT P6SM SKC FM220300 01005KT P6SM SKC ...METAR for: KSEA (Seattle-Tacoma Intl, WA, US) Text: KSEA 050353Z 00000KT 10SM CLR 07/M03 A3016 RMK AO2 SLP222 T00721028: Temperature: 7.2°C ( 45°F)TAF Report. KSEA 181742Z 1818/1924 06008KT P6SM SCT020 BKN050 FM182300 35005KT P6SM SCT050 SCT200 FM190300 03005KT P6SM BKN120 OVC200 …Plot. Data. Board. Info. IDs: Format: Raw Decoded Include TAF. Data at: 1638 UTC 10 Oct 2023. Region: TOP. KATL 101552Z 23008KT 10SM SCT200 SCT250 24/09 A2995 RMK AO2 SLP135 T02440094 $. KBOS 101554Z 15008KT 10SM FEW040 BKN110 BKN250 16/10 A2982 RMK AO2 SLP099 T01560100.data at: 0307 utc 28 sep 2023. ksea 280253z 22013kt 10sm sct022 sct039 bkn055 14/09 a3007 rmk ao2 pk wnd 22026/0159 slp189 t01390094 53017 ksea 280153z 22015g23kt 10sm sct021 sct080 14/10 a3004 rmk ao2 slp179 t01390100 ksea 280120z 22013g21kt 10sm few017 sct021 sct080 15/11 a3003 rmk ao2 t01500106 ksea 280053z 21014kt 10sm bkn018 bkn080 16/11 a3003 rmk ao2 slp175 t01560111 ksea 272353z 19009kt ...data at: 2014 utc 28 jun 2023. ksea 281953z 19007kt 160v220 10sm few025 21/13 a3002 rmk ao2 slp170 t02060128Seattle Clearance. Tower. 119.90 MHz. Seattle Tower. Warning: Do not use this data for real-world aviation or navigation. No guarantee of current accuracy is given. Airport information for Seattle-Tacoma Intl (KSEA) in , including runways, map, navaids, weather (METAR/TAF) and ATC frequencies. For flight simulation use only. Station Type Date Time Source; KSEA: Decoded METAR: 2023/10/06: 05:53 UTC: NOAA: SEATTLE-TACOMA INTERNATIONAL AIRPORT , WA, United States (KSEA) 47-27N 122-19W 136M taf: ksea 100138z 1002/1106 21009g18kt p6sm -shra bkn025 bkn050 tempo 1002/1006 sct025 bkn035 fm100600 20006kt p6sm bkn050 ovc070 fm101400 16008kt p6sm -ra ovc040 fm101900 14008kt p6sm -shra ovc040 Weather observations and forecasts of more than 4000 airports (METAR and TAF reports).Additional Info. Hover over sites for TAF and other information. Select area below to display TAFs on the right. A area B area C area D area. ZSE Area TAFs from AWC.Flight plan departing from KSEA - Seattle-Tacoma Intl, arriving at KJFK - John F. Kennedy Intl. Distance 2,112 nm / 3,912 km. Download for FSX, X-Plane, PMDG, Infinite Flight, PDF or other products. ... TAF AMD KJFK 070833Z 0709/0812 VRB03KT P6SM FEW250 FM071400 20006KT P6SM FEW050 SCT250 FM071800 18010KT P6SM SCT050 SCT250 FM072000 18014KT ...Oct 10, 2023 · METAR Seattle Paine Field International - KPAE/PAE. Seattle Paine Field International is a midsized airport in Washington, United States. The airport is located at latitude 47.90732 and longitude -122.28209. The airport has 2 runways: 16L/34R and 16R/34L. METAR KSEA 291153Z 01005KT 8SM FEW002 FEW050 09/08 A2995 RMK AO2 SLP150 70002 T00890078 10133 20089 58013. The wind is from direction 010° with a speed of 5 kt. Visibility is 8 mi. ... KSEA - Seattle-Tacoma International Airport METAR TAF. KRNT - Renton Municipal Airport (4.7 NM) METAR KBFI - Boeing Field/King County International ...Decoded TAF for Seattle Tacoma International airport KSEA SEA. TAF issued by KSEA on Tuesday, October 3, 2023 at 17:24 UTC Warning : this TAF is out of date, issued 1 days and 6 hours and 18 minutes ago. weather forecast for 30 hours, weather forecast updated every 6 hours.. from Tuesday, October 3, 2023 à 18:00 heure TU to Tuesday, October 3, 2023 …ksea 181453z 11005kt 10sm bkn040 bkn048 14/09 a3005 rmk ao2 slp182 60008 t01390094 51014 ksea 181528z 1815/1918 10006kt p6sm vcsh bkn025 ovc040 fm181700 02008kt p6sm sct025 bkn045 fm182100 33006kt p6sm sct050 sct200 fm190500 vrb05kt p6sm bkn120 ovc200 fm191100 17007kt p6sm bkn050 ovc090. cyyc 181500z 30015kt 10sm bkn240 18/m01 a2968 rmk cc7 ...METAR KSEA 300253Z 36008KT 10SM CLR 11/07 A2993 RMK AO2 SLP143 T01110067 53006 $. The wind is from direction 360° with a speed of 8 kt. Visibility is 10 mi. No ceiling has been observed. ... KSEA - Seattle-Tacoma International Airport METAR TAF. KRNT - Renton Municipal Airport (4.7 NM) METAR KBFI - Boeing Field/King County International ...Airport Information for SEATTLE-TACOMA INTERNATIONAL, KSEA. Elevation: 432.3 ft Variation 16E. 47-26-59.6000N 122-18-42.4000W. 10 miles S of SEATTLE, WA.TAF Text Data. TAF Home. Plot. Data. Board. Info. IDs: Format: Raw Decoded Include METAR Data at: 1453 UTC 14 Sep 2023. KSEA 141341Z 1414/1518 02008KT 4SM BR BKN003 TEMPO 1415/1416 6SM BR SCT003 FM141600 35008KT P6SM SKC. Page loaded: 14:53 UTC | 07:53 AM Pacific | 08:53 AM Mountain | 09:53 AM Central | 10:53 AM Eastern ...METAR for: KSEA (Seattle-Tacoma Intl, WA, US) Text: KSEA 231153Z 21007KT 10SM SCT120 OVC240 14/08 A2991 RMK AO2 SLP134 T01390078 10172 20139 55000Impacts TAF Board. TAF Home. Plot. Data. Board. Info. For situational awareness. Not to be used for flight planning purposes. IDs: KSEA - Seattle-Tacoma Intl, WA, US. Issued at 1735 UTC 21 Mar 2023. Updated at 1758 UTC 21 Mar 2023. Potential Impact: None: Slight: Moderate: High: Time 1753Z 21/18Z 21/19Z 21/20Z 21/21Z 21/22ZTAF Home. Plot. Data. Board. Info. For situational awareness. Not to be used for flight planning purposes. IDs: KSEA - Seattle-Tacoma Intl, WA, US. Issued at 0255 UTC ... METAR KSEA 251853Z 23003KT 9SM -RA BKN060 OVC075 16/13 A2975 RMK AO2 RAE00B18 SLP079 P0001 T01560128. Current weather is light rain.The wind is from direction 230° with a speed of 3 kt. Visibility is 9 mi. The ceiling, broken or more, is 6,000 ft. The temperature and wind chill are 16 °C.Oct 9, 2023 · TAF for: KSEA (Seattle-Tacoma Intl, WA, US) issued at 1140 UTC 09 Oct 2023: Text: KSEA 091140Z 0912/1018 16008KT P6SM SCT120 BKN200 : Forecast period: 1200 to 1600 UTC 09 October 2023: Forecast type: FROM: standard forecast or significant change: Winds: from the SSE (160 degrees) at 9 MPH (8 knots; 4.1 m/s) Visibility: 6 or more sm (10+ km ... METAR KSEA 040253Z 00000KT 10SM FEW037 SCT250 14/09 A3026 RMK AO2 SLP254 T01440094 53004. There is little or no wind from a variable direction. Visibility is 10 mi. No ceiling has been observed. The temperature and wind chill are 14 °C.TAF: KSEA 150852Z 1509/1612 03008KT P6SM SKC FM151200 VRB04KT P6SM FEW250 FM151700 32008KT P6SM FEW250 FM160400 35005KT P6SM FEW250. Weather observations and forecasts of more than 4000 airports (METAR and TAF reports). The available stations are represented by yellow and red dots on the map.Sep 17, 2023 · variable direction winds at 5 MPH (4 knots; 2.1 m/s) Visibility: 10 or more sm (16+ km) Ceiling: at least 12,000 feet AGL. Clouds: few clouds at 14000 feet AGL, few clouds at 17000 feet AGL, scattered clouds at 22000 feet AGL. TAF for: KSEA (Seattle-Tacoma Intl, WA, US) issued at 2146 UTC 17 Sep 2023. KSEA METAR TAF AREA METARS AREA TAFS 2 AIRMETS KSEA. UTC. Seattle–Tacoma International Airport SeaTac, Washington, United States. METAR - Current.. METAR KSEA 141853Z 03008KT 10SM CLR 21/11 A3012 RMK AO2 SLP205 T0211METAR KSEA 112353Z 28007KT 10SM FEW040 FEW250 24/10 METAR KSEA 250753Z 12013KT 9SM -RA BKN050 OVC070 14/12 A2978 RMK AO2 RAE19B50 SLP089 P0002 T01440117 401780111. Current weather is light rain.The wind is from direction 120° with a speed of 13 kt. Visibility is 9 mi. The ceiling, broken or more, is 5,000 ft. The temperature and wind chill are 14 °C.Impacts TAF Board. TAF Home. Plot. Data. Board. Info. For situational awareness. Not to be used for flight planning purposes. IDs: KSEA - Seattle-Tacoma Intl, WA, US. Issued at 2107 UTC 08 Jun 2023. Updated at 2216 UTC 08 Jun 2023. Potential Impact: None: Slight: Moderate: High: Time <<09/11Z 09/12Z 09/13Z 09/14Z 09/15Z Impacts TAF Board. TAF Home. Plot. Data. Board. Info. For situational NOTE: LAMP data beyond the time of the TAF data is denoted as LAMP in Type and colored magenta. Raw TAF KSEA 201506Z 2015/2118 16006KT 3SM -RA BR SCT010 OVC025 FM201600 19007KT P6SM -SHRA OVC020 FM202100 22009KT P6SM VCSH SCT030 OVC040 FM210000 20007KT P6SM OVC040 FM210800 18004KT P6SM OVC025 Raw METAR KSEA 201715Z 20008KT 10SM SCT008 BKN012 OVC022 09/07 A2970 RMK AO2 RAE12 P0001 T00890072 ... state: nj k12n 011954z auto vrb03kt 24/14 a3016...

Continue Reading